Time;durP1;ratioP1;P1;durP2;ratioP2;P2;SDS_P1;SDS_P2;PMS_P1;PMS_P2;Temp;Humidity;BMP_temperature;BMP_pressure;BME280_temperature;BME280_humidity;BME280_pressure;Samples;Min_cycle;Max_cycle;Signal;HPM_P1;HPM_P2
2023/04/29 00:00:21;;;;;;;1.80;1.60;;;;;;;;;;5021640;28;20037;-41
2023/04/29 00:02:46;;;;;;;4.18;1.70;;;;;;;;;;5020492;28;20025;-43
2023/04/29 00:05:12;;;;;;;3.25;1.90;;;;;;;;;;5022383;28;20429;-40
2023/04/29 00:07:37;;;;;;;2.42;1.50;;;;;;;;;;5023998;28;20116;-42
2023/04/29 00:10:03;;;;;;;3.03;1.50;;;;;;;;;;5024206;28;20504;-41
2023/04/29 00:12:30;;;;;;;4.00;1.77;;;;;;;;;;5021607;28;20144;-44
2023/04/29 00:14:56;;;;;;;5.07;1.63;;;;;;;;;;5019579;28;20017;-46
2023/04/29 00:17:21;;;;;;;2.00;1.60;;;;;;;;;;5023556;28;20524;-43
2023/04/29 00:19:47;;;;;;;4.18;1.67;;;;;;;;;;5022473;28;20362;-47
2023/04/29 00:22:13;;;;;;;1.67;1.58;;;;;;;;;;5022256;28;20065;-43
2023/04/29 00:24:38;;;;;;;1.98;1.73;;;;;;;;;;5022508;28;20033;-41
2023/04/29 00:27:05;;;;;;;3.10;2.03;;;;;;;;;;5020497;28;20036;-42
2023/04/29 00:29:30;;;;;;;1.95;1.42;;;;;;;;;;5023458;28;20485;-42
2023/04/29 00:31:55;;;;;;;2.65;1.73;;;;;;;;;;5020581;28;20092;-42
2023/04/29 00:34:21;;;;;;;4.00;2.30;;;;;;;;;;5020999;28;20036;-41
2023/04/29 00:36:46;;;;;;;5.05;1.85;;;;;;;;;;5018365;28;20041;-42
2023/04/29 00:39:12;;;;;;;2.75;1.42;;;;;;;;;;5023916;28;20496;-42
2023/04/29 00:41:38;;;;;;;5.85;1.92;;;;;;;;;;5021353;28;20042;-41
2023/04/29 00:44:03;;;;;;;2.95;1.70;;;;;;;;;;5024075;28;20036;-44
2023/04/29 00:46:29;;;;;;;3.67;1.48;;;;;;;;;;5023185;28;20043;-43
2023/04/29 00:48:55;;;;;;;1.80;1.70;;;;;;;;;;5023090;28;20763;-44
2023/04/29 00:51:20;;;;;;;4.60;2.03;;;;;;;;;;5023740;28;20041;-44
2023/04/29 00:53:46;;;;;;;5.80;2.20;;;;;;;;;;5024084;28;20045;-44
2023/04/29 00:56:13;;;;;;;3.00;1.88;;;;;;;;;;5026138;28;20050;-42
2023/04/29 00:58:39;;;;;;;4.80;2.33;;;;;;;;;;5027736;28;20053;-43
2023/04/29 01:01:05;;;;;;;2.88;2.03;;;;;;;;;;5025258;28;20064;-43
2023/04/29 01:03:31;;;;;;;3.90;1.77;;;;;;;;;;5027244;28;20119;-45
2023/04/29 01:06:11;;;;;;;2.00;1.67;;;;;;;;;;5022555;28;20042;-41
2023/04/29 01:09:06;;;;;;;1.90;1.80;;;;;;;;;;5024820;28;20033;-46
2023/04/29 01:11:46;;;;;;;4.30;1.88;;;;;;;;;;5021220;28;20133;-43
2023/04/29 01:14:11;;;;;;;5.35;2.08;;;;;;;;;;5024680;28;20445;-41
2023/04/29 01:16:50;;;;;;;7.85;2.45;;;;;;;;;;5023593;28;20132;-43
2023/04/29 01:19:32;;;;;;;3.72;2.00;;;;;;;;;;5026091;28;20547;-45
2023/04/29 01:21:58;;;;;;;2.10;1.90;;;;;;;;;;5026563;28;20100;-41
2023/04/29 01:24:24;;;;;;;2.08;1.85;;;;;;;;;;5024240;28;20038;-41
2023/04/29 01:27:01;;;;;;;3.65;1.80;;;;;;;;;;5024764;28;20037;-43
2023/04/29 01:29:55;;;;;;;5.03;1.95;;;;;;;;;;5023205;28;20509;-44
2023/04/29 01:32:58;;;;;;;5.20;2.30;;;;;;;;;;5025453;28;20481;-41
2023/04/29 01:35:29;;;;;;;4.85;1.83;;;;;;;;;;4986616;28;20038;-41
2023/04/29 01:38:01;;;;;;;2.35;1.95;;;;;;;;;;4987028;28;20117;-43
2023/04/29 01:40:55;;;;;;;5.07;2.00;;;;;;;;;;4986059;28;20049;-41
2023/04/29 01:43:23;;;;;;;3.58;2.00;;;;;;;;;;4981583;28;20399;-44
2023/04/29 01:45:52;;;;;;;7.13;1.88;;;;;;;;;;4985562;28;20042;-41
2023/04/29 01:48:18;;;;;;;4.63;1.70;;;;;;;;;;4986943;28;20026;-42
2023/04/29 01:50:44;;;;;;;1.77;1.60;;;;;;;;;;4985097;28;20116;-41
2023/04/29 01:53:09;;;;;;;4.43;1.80;;;;;;;;;;4983189;28;20499;-42
2023/04/29 01:55:34;;;;;;;2.22;1.80;;;;;;;;;;4985999;28;20050;-42
2023/04/29 01:58:00;;;;;;;1.65;1.52;;;;;;;;;;4983415;28;20209;-42
2023/04/29 02:00:25;;;;;;;2.42;1.60;;;;;;;;;;4984970;28;20034;-43
2023/04/29 02:02:50;;;;;;;3.97;1.65;;;;;;;;;;4986866;28;20038;-44
2023/04/29 02:05:16;;;;;;;3.25;1.65;;;;;;;;;;4985522;28;20089;-44
2023/04/29 02:07:43;;;;;;;3.65;1.63;;;;;;;;;;4983772;28;20038;-43
2023/04/29 02:10:09;;;;;;;2.13;1.35;;;;;;;;;;4987239;28;20482;-41
2023/04/29 02:12:35;;;;;;;1.95;1.55;;;;;;;;;;5008550;28;20457;-41
2023/04/29 02:15:00;;;;;;;3.65;1.60;;;;;;;;;;5024319;28;20051;-42
2023/04/29 02:17:26;;;;;;;2.45;1.73;;;;;;;;;;5025375;28;20041;-43
2023/04/29 02:19:53;;;;;;;2.50;1.50;;;;;;;;;;5023314;28;20478;-41
2023/04/29 02:22:19;;;;;;;3.78;1.60;;;;;;;;;;5025874;28;20045;-42
2023/04/29 02:24:45;;;;;;;4.47;1.85;;;;;;;;;;5023916;28;20021;-45
2023/04/29 02:27:10;;;;;;;4.63;1.50;;;;;;;;;;5024591;28;20065;-41
2023/04/29 02:29:36;;;;;;;1.88;1.40;;;;;;;;;;5023636;28;20021;-41
2023/04/29 02:32:01;;;;;;;3.10;1.30;;;;;;;;;;5022875;28;20037;-42
2023/04/29 02:34:26;;;;;;;3.78;1.55;;;;;;;;;;5024529;28;20028;-42
2023/04/29 02:36:52;;;;;;;1.45;1.20;;;;;;;;;;5020309;28;20056;-41
2023/04/29 02:39:19;;;;;;;2.72;1.52;;;;;;;;;;5023843;28;20021;-41
2023/04/29 02:41:45;;;;;;;5.70;1.58;;;;;;;;;;5023310;28;20046;-41
2023/04/29 02:44:11;;;;;;;2.08;1.58;;;;;;;;;;5021891;28;20030;-44
2023/04/29 02:46:38;;;;;;;1.95;1.58;;;;;;;;;;5020734;28;20038;-41
2023/04/29 02:49:03;;;;;;;4.15;1.85;;;;;;;;;;5021026;28;20033;-42
2023/04/29 02:51:29;;;;;;;3.17;1.70;;;;;;;;;;5025836;28;20709;-42
2023/04/29 02:53:55;;;;;;;13.00;1.73;;;;;;;;;;5020420;28;20124;-41
2023/04/29 02:56:20;;;;;;;3.40;1.73;;;;;;;;;;5020063;28;20538;-45
2023/04/29 02:58:45;;;;;;;1.48;1.30;;;;;;;;;;5022578;28;20029;-43
2023/04/29 03:01:11;;;;;;;1.77;1.50;;;;;;;;;;5021210;28;20026;-41
2023/04/29 03:03:36;;;;;;;4.30;2.15;;;;;;;;;;5026176;28;20030;-43
2023/04/29 03:06:02;;;;;;;1.40;1.30;;;;;;;;;;5024019;28;20044;-44
2023/04/29 03:08:28;;;;;;;4.93;1.30;;;;;;;;;;5021067;28;20725;-44
2023/04/29 03:10:53;;;;;;;2.13;1.35;;;;;;;;;;5024713;28;20164;-47
2023/04/29 03:13:19;;;;;;;1.50;1.40;;;;;;;;;;5017039;28;20029;-41
2023/04/29 03:15:44;;;;;;;2.63;1.45;;;;;;;;;;5022537;28;20053;-41
2023/04/29 03:18:10;;;;;;;4.57;1.60;;;;;;;;;;5021628;28;20037;-44
2023/04/29 03:20:35;;;;;;;3.08;1.35;;;;;;;;;;5024154;28;20509;-43
2023/04/29 03:23:01;;;;;;;5.90;1.65;;;;;;;;;;5022008;28;20033;-43
2023/04/29 03:25:27;;;;;;;3.63;1.85;;;;;;;;;;5022362;28;20021;-45
2023/04/29 03:27:52;;;;;;;5.43;1.55;;;;;;;;;;5023306;28;20138;-45
2023/04/29 03:30:18;;;;;;;2.28;1.60;;;;;;;;;;5022682;28;20120;-43
2023/04/29 03:32:43;;;;;;;4.97;1.38;;;;;;;;;;5022626;28;20025;-41
2023/04/29 03:35:10;;;;;;;5.20;1.30;;;;;;;;;;5020927;28;20036;-41
2023/04/29 03:37:36;;;;;;;2.30;1.63;;;;;;;;;;5025172;28;20046;-48
2023/04/29 03:40:01;;;;;;;2.80;1.38;;;;;;;;;;5022353;28;20378;-43
2023/04/29 03:42:26;;;;;;;3.78;1.65;;;;;;;;;;5020892;28;20045;-42
2023/04/29 03:44:52;;;;;;;2.40;1.55;;;;;;;;;;5024427;28;20065;-42
2023/04/29 03:47:17;;;;;;;1.95;1.58;;;;;;;;;;5024515;28;20036;-41
2023/04/29 03:49:42;;;;;;;2.45;1.73;;;;;;;;;;5023145;28;20120;-42
2023/04/29 03:52:08;;;;;;;2.50;1.63;;;;;;;;;;5021219;28;20033;-42
2023/04/29 03:54:33;;;;;;;1.45;1.33;;;;;;;;;;5022617;28;20033;-45
2023/04/29 03:56:59;;;;;;;3.63;1.50;;;;;;;;;;5020222;28;20052;-47
2023/04/29 03:59:25;;;;;;;4.07;1.38;;;;;;;;;;5022534;28;20382;-45
2023/04/29 04:01:51;;;;;;;2.42;2.00;;;;;;;;;;5023326;28;20111;-44
2023/04/29 04:04:16;;;;;;;2.00;1.40;;;;;;;;;;5019849;28;20493;-41
2023/04/29 04:06:43;;;;;;;1.73;1.30;;;;;;;;;;5018819;28;20048;-42
2023/04/29 04:09:08;;;;;;;2.85;1.67;;;;;;;;;;5021406;28;20026;-42
2023/04/29 04:11:35;;;;;;;4.00;1.52;;;;;;;;;;5021418;28;20731;-42
2023/04/29 04:14:00;;;;;;;2.20;1.20;;;;;;;;;;5016876;28;20033;-43
2023/04/29 04:16:26;;;;;;;1.92;1.30;;;;;;;;;;5019475;28;20454;-44
2023/04/29 04:18:51;;;;;;;1.77;1.30;;;;;;;;;;5021109;28;21705;-43
2023/04/29 04:21:16;;;;;;;3.25;1.40;;;;;;;;;;5021642;28;20112;-41
2023/04/29 04:23:42;;;;;;;1.65;1.23;;;;;;;;;;5018327;28;20034;-41
2023/04/29 04:26:08;;;;;;;3.55;1.27;;;;;;;;;;5019618;28;20567;-44
2023/04/29 04:28:33;;;;;;;1.63;1.30;;;;;;;;;;5021139;28;20053;-47
2023/04/29 04:30:59;;;;;;;1.77;1.30;;;;;;;;;;5021416;28;20053;-43
2023/04/29 04:33:25;;;;;;;1.85;1.30;;;;;;;;;;5022426;28;20048;-47
2023/04/29 04:35:50;;;;;;;2.60;1.10;;;;;;;;;;5022422;28;20069;-45
2023/04/29 04:38:16;;;;;;;1.80;1.27;;;;;;;;;;5022013;28;20183;-43
2023/04/29 04:40:42;;;;;;;3.13;1.40;;;;;;;;;;5020297;28;20045;-44
2023/04/29 04:43:07;;;;;;;1.60;1.10;;;;;;;;;;5019035;28;20490;-42
2023/04/29 04:45:33;;;;;;;1.27;1.15;;;;;;;;;;5021648;28;20567;-41
2023/04/29 04:47:58;;;;;;;6.00;1.40;;;;;;;;;;5021763;28;20116;-45
2023/04/29 04:50:23;;;;;;;3.00;1.30;;;;;;;;;;5019341;28;20144;-48
2023/04/29 04:52:49;;;;;;;5.85;1.20;;;;;;;;;;5024719;28;20388;-44
2023/04/29 04:55:14;;;;;;;1.25;1.13;;;;;;;;;;5017318;28;20052;-41
2023/04/29 04:57:40;;;;;;;3.38;1.27;;;;;;;;;;5021373;28;20137;-45
2023/04/29 05:00:06;;;;;;;4.90;1.45;;;;;;;;;;5022161;28;20065;-42
2023/04/29 05:02:31;;;;;;;3.03;1.20;;;;;;;;;;5018685;28;20038;-46
2023/04/29 05:04:57;;;;;;;1.90;0.90;;;;;;;;;;5022109;28;20029;-41
2023/04/29 05:07:22;;;;;;;1.45;1.10;;;;;;;;;;5020726;28;20124;-45
2023/04/29 05:09:48;;;;;;;4.47;1.88;;;;;;;;;;5021880;28;20033;-48
2023/04/29 05:12:13;;;;;;;3.17;1.20;;;;;;;;;;5021081;28;20087;-45
2023/04/29 05:14:38;;;;;;;1.45;1.30;;;;;;;;;;5018556;28;20037;-47
2023/04/29 05:17:04;;;;;;;4.32;2.72;;;;;;;;;;5024115;28;20041;-42
2023/04/29 05:19:29;;;;;;;3.80;1.85;;;;;;;;;;5021408;28;20091;-44
2023/04/29 05:21:54;;;;;;;3.97;1.98;;;;;;;;;;5022358;28;20604;-41
2023/04/29 05:24:20;;;;;;;4.63;3.03;;;;;;;;;;5022417;28;20040;-42
2023/04/29 05:26:45;;;;;;;6.25;3.58;;;;;;;;;;5021946;28;20044;-44
2023/04/29 05:29:11;;;;;;;5.75;3.00;;;;;;;;;;5021861;28;20351;-43
2023/04/29 05:31:37;;;;;;;5.72;1.90;;;;;;;;;;5020538;28;20033;-46
2023/04/29 05:34:03;;;;;;;7.80;1.80;;;;;;;;;;5021400;28;20046;-42
2023/04/29 05:36:28;;;;;;;4.60;2.10;;;;;;;;;;5020045;28;20060;-41
2023/04/29 05:38:54;;;;;;;3.72;1.83;;;;;;;;;;5022068;28;20029;-41
2023/04/29 05:41:19;;;;;;;2.85;1.13;;;;;;;;;;5024156;28;20101;-44
2023/04/29 05:43:45;;;;;;;1.15;1.10;;;;;;;;;;5026115;28;20033;-41
2023/04/29 05:46:10;;;;;;;4.72;1.60;;;;;;;;;;5023430;28;20037;-47
2023/04/29 05:48:36;;;;;;;6.43;3.20;;;;;;;;;;5024861;28;20018;-45
2023/04/29 05:51:01;;;;;;;2.30;1.40;;;;;;;;;;5023308;28;20123;-45
2023/04/29 05:53:26;;;;;;;5.15;1.50;;;;;;;;;;5024927;28;20604;-42
2023/04/29 05:55:52;;;;;;;4.20;1.30;;;;;;;;;;5027192;28;20056;-47
2023/04/29 05:58:17;;;;;;;5.68;1.30;;;;;;;;;;5024277;28;20470;-43
2023/04/29 06:00:43;;;;;;;1.33;1.20;;;;;;;;;;5023605;28;20537;-44
2023/04/29 06:03:10;;;;;;;6.07;1.25;;;;;;;;;;5025295;28;20056;-44
2023/04/29 06:05:36;;;;;;;1.90;1.30;;;;;;;;;;5022530;28;20041;-44
2023/04/29 06:08:02;;;;;;;3.30;1.42;;;;;;;;;;5023693;28;20504;-41
2023/04/29 06:10:28;;;;;;;2.53;1.50;;;;;;;;;;5025519;28;20039;-43
2023/04/29 06:12:53;;;;;;;4.40;1.48;;;;;;;;;;5023733;28;20034;-44
2023/04/29 06:15:18;;;;;;;2.72;1.30;;;;;;;;;;5021935;28;20498;-42
2023/04/29 06:17:44;;;;;;;4.72;1.60;;;;;;;;;;5025567;28;20029;-40
2023/04/29 06:20:10;;;;;;;5.75;1.55;;;;;;;;;;5023793;28;20030;-42
2023/04/29 06:22:35;;;;;;;5.07;1.60;;;;;;;;;;5021905;28;20128;-42
2023/04/29 06:25:00;;;;;;;5.10;1.73;;;;;;;;;;5021743;28;20038;-41
2023/04/29 06:27:27;;;;;;;3.63;1.38;;;;;;;;;;5022387;28;20068;-41
2023/04/29 06:29:52;;;;;;;9.57;1.75;;;;;;;;;;5023654;28;20071;-43
2023/04/29 06:32:17;;;;;;;9.68;1.40;;;;;;;;;;5020069;28;20702;-44
2023/04/29 06:34:44;;;;;;;1.95;1.38;;;;;;;;;;5023270;28;20096;-43
2023/04/29 06:37:09;;;;;;;2.00;1.20;;;;;;;;;;5017973;28;20033;-41
2023/04/29 06:39:35;;;;;;;1.73;1.27;;;;;;;;;;5022722;28;20088;-41
2023/04/29 06:42:00;;;;;;;5.15;1.80;;;;;;;;;;5023507;28;20053;-43
2023/04/29 06:44:26;;;;;;;3.00;1.50;;;;;;;;;;5024685;28;20030;-41
2023/04/29 06:46:52;;;;;;;1.50;1.20;;;;;;;;;;5024455;28;20033;-41
2023/04/29 06:49:17;;;;;;;1.85;1.40;;;;;;;;;;5024800;28;20029;-41
2023/04/29 06:51:42;;;;;;;2.40;1.52;;;;;;;;;;5019697;28;20137;-45
2023/04/29 06:54:08;;;;;;;6.85;1.20;;;;;;;;;;5022403;28;20029;-42
2023/04/29 06:56:33;;;;;;;1.20;1.10;;;;;;;;;;5023664;28;20095;-41
2023/04/29 06:58:58;;;;;;;1.10;1.08;;;;;;;;;;5022409;28;20030;-44
2023/04/29 07:01:24;;;;;;;1.30;1.20;;;;;;;;;;5021431;28;20029;-46
2023/04/29 07:03:49;;;;;;;3.13;1.33;;;;;;;;;;5023344;28;20530;-45
2023/04/29 07:06:15;;;;;;;3.40;1.30;;;;;;;;;;5021614;28;20490;-41
2023/04/29 07:08:40;;;;;;;2.67;1.33;;;;;;;;;;5022674;28;20025;-41
2023/04/29 07:11:06;;;;;;;4.05;1.60;;;;;;;;;;5020843;28;20033;-42
2023/04/29 07:13:31;;;;;;;2.53;1.52;;;;;;;;;;5020285;28;20021;-44
2023/04/29 07:15:56;;;;;;;4.13;2.13;;;;;;;;;;5018062;28;20245;-47
2023/04/29 07:18:22;;;;;;;23.85;2.50;;;;;;;;;;5022903;28;20131;-42
2023/04/29 07:20:48;;;;;;;21.92;2.10;;;;;;;;;;5020116;28;20128;-43
2023/04/29 07:23:14;;;;;;;17.35;2.95;;;;;;;;;;5019220;28;20033;-41
2023/04/29 07:25:40;;;;;;;24.00;3.15;;;;;;;;;;5021390;28;20034;-42
2023/04/29 07:28:07;;;;;;;12.45;2.90;;;;;;;;;;5024212;28;20039;-42
2023/04/29 07:30:32;;;;;;;24.65;3.33;;;;;;;;;;5022456;28;20151;-46
2023/04/29 07:32:57;;;;;;;23.02;2.67;;;;;;;;;;5023251;28;20041;-45
2023/04/29 07:35:23;;;;;;;13.85;2.15;;;;;;;;;;5021864;28;20029;-47
2023/04/29 07:37:49;;;;;;;9.68;1.88;;;;;;;;;;5022209;28;20030;-44
2023/04/29 07:40:14;;;;;;;3.42;1.60;;;;;;;;;;5019215;28;20030;-42
2023/04/29 07:42:39;;;;;;;7.97;2.15;;;;;;;;;;5022730;28;20120;-42
2023/04/29 07:45:05;;;;;;;7.32;1.38;;;;;;;;;;5016941;28;20730;-47
2023/04/29 07:47:31;;;;;;;3.10;1.75;;;;;;;;;;5021191;28;20128;-41
2023/04/29 07:49:56;;;;;;;4.70;1.70;;;;;;;;;;5022844;28;20044;-41
2023/04/29 07:52:22;;;;;;;2.05;1.85;;;;;;;;;;5020563;28;20312;-44
2023/04/29 07:54:47;;;;;;;2.85;1.85;;;;;;;;;;5023331;28;20025;-47
2023/04/29 07:57:13;;;;;;;4.43;2.47;;;;;;;;;;5022797;28;20151;-43
2023/04/29 07:59:38;;;;;;;2.60;1.88;;;;;;;;;;5022068;28;20064;-43
2023/04/29 08:02:03;;;;;;;8.43;2.03;;;;;;;;;;5021650;28;20521;-44
2023/04/29 08:04:29;;;;;;;2.45;1.55;;;;;;;;;;5019545;28;20119;-46
2023/04/29 08:06:54;;;;;;;1.45;1.33;;;;;;;;;;5022305;28;20064;-44
2023/04/29 08:09:20;;;;;;;5.20;1.48;;;;;;;;;;5018802;28;20061;-47
2023/04/29 08:11:45;;;;;;;3.03;1.40;;;;;;;;;;5020364;28;20037;-46
2023/04/29 08:14:11;;;;;;;3.88;1.52;;;;;;;;;;5022343;28;20535;-44
2023/04/29 08:16:36;;;;;;;2.40;1.42;;;;;;;;;;5020798;28;20041;-47
2023/04/29 08:19:01;;;;;;;1.67;1.55;;;;;;;;;;5022831;28;20087;-47
2023/04/29 08:21:27;;;;;;;2.97;2.08;;;;;;;;;;5020514;28;20053;-45
2023/04/29 08:23:54;;;;;;;5.00;1.95;;;;;;;;;;5018096;28;20385;-43
2023/04/29 08:26:21;;;;;;;2.85;1.77;;;;;;;;;;5016481;28;20549;-43
2023/04/29 08:28:46;;;;;;;2.97;1.98;;;;;;;;;;5023714;28;20060;-50
2023/04/29 08:31:19;;;;;;;2.00;1.67;;;;;;;;;;5019385;28;20037;-42
2023/04/29 08:33:45;;;;;;;4.25;1.90;;;;;;;;;;5018631;28;20073;-46
2023/04/29 08:36:10;;;;;;;4.65;1.98;;;;;;;;;;5022731;28;20030;-48
2023/04/29 08:38:36;;;;;;;5.90;2.20;;;;;;;;;;5017923;28;20025;-44
2023/04/29 08:41:01;;;;;;;3.40;2.10;;;;;;;;;;5017364;28;20406;-48
2023/04/29 08:43:28;;;;;;;9.40;2.28;;;;;;;;;;5015995;28;20030;-43
2023/04/29 08:45:53;;;;;;;6.22;2.30;;;;;;;;;;5019953;28;20526;-44
2023/04/29 08:48:20;;;;;;;2.13;1.73;;;;;;;;;;5019417;28;20041;-43
2023/04/29 08:50:45;;;;;;;6.30;2.13;;;;;;;;;;5019400;28;20522;-42
2023/04/29 08:53:12;;;;;;;2.90;1.63;;;;;;;;;;5016480;28;20056;-49
2023/04/29 08:55:45;;;;;;;6.32;1.75;;;;;;;;;;5021863;28;20058;-45
2023/04/29 08:58:12;;;;;;;3.30;1.70;;;;;;;;;;5020992;28;20053;-46
2023/04/29 09:00:39;;;;;;;2.92;1.55;;;;;;;;;;5021798;28;20041;-46
2023/04/29 09:03:13;;;;;;;7.05;1.50;;;;;;;;;;5017103;28;20181;-48
2023/04/29 09:05:40;;;;;;;3.53;1.45;;;;;;;;;;5019467;28;20115;-44
2023/04/29 09:08:07;;;;;;;4.70;1.33;;;;;;;;;;5021373;28;20557;-43
2023/04/29 09:10:35;;;;;;;4.55;1.60;;;;;;;;;;5019721;28;20026;-48
2023/04/29 09:13:00;;;;;;;9.70;1.88;;;;;;;;;;5020685;28;20437;-46
2023/04/29 09:15:26;;;;;;;2.13;1.40;;;;;;;;;;5022890;28;20112;-50
2023/04/29 09:17:52;;;;;;;4.05;1.52;;;;;;;;;;5024692;28;20541;-49
2023/04/29 09:20:20;;;;;;;1.95;1.38;;;;;;;;;;5026194;28;20022;-50
2023/04/29 09:23:06;;;;;;;5.47;1.27;;;;;;;;;;5023766;28;20036;-51
2023/04/29 09:25:31;;;;;;;3.47;1.42;;;;;;;;;;5022789;28;20033;-49
2023/04/29 09:27:57;;;;;;;2.30;1.20;;;;;;;;;;5024169;28;20494;-51
2023/04/29 09:30:23;;;;;;;1.20;1.13;;;;;;;;;;5019286;28;20497;-48
2023/04/29 09:33:16;;;;;;;1.77;1.40;;;;;;;;;;5026457;28;20117;-48
2023/04/29 09:35:41;;;;;;;3.67;1.40;;;;;;;;;;5021301;28;20053;-44
2023/04/29 09:38:09;;;;;;;1.83;1.40;;;;;;;;;;5025163;28;20044;-49
2023/04/29 09:40:35;;;;;;;5.32;1.50;;;;;;;;;;5023629;28;20104;-44
2023/04/29 09:43:01;;;;;;;1.73;1.55;;;;;;;;;;5020461;28;20037;-45
2023/04/29 09:45:38;;;;;;;2.25;1.50;;;;;;;;;;5022879;28;20048;-46
2023/04/29 09:48:05;;;;;;;3.25;1.60;;;;;;;;;;5028460;28;20032;-44
2023/04/29 09:50:31;;;;;;;2.33;1.38;;;;;;;;;;5023418;28;20045;-44
2023/04/29 09:52:57;;;;;;;5.35;1.73;;;;;;;;;;5022643;28;20037;-42
2023/04/29 09:55:22;;;;;;;9.27;5.68;;;;;;;;;;5021183;28;20026;-43
2023/04/29 09:57:48;;;;;;;4.32;1.33;;;;;;;;;;5021899;28;20056;-42
2023/04/29 10:00:14;;;;;;;2.80;1.23;;;;;;;;;;5024274;28;20037;-43
2023/04/29 10:02:46;;;;;;;2.85;1.30;;;;;;;;;;5021296;28;20017;-43
2023/04/29 10:05:12;;;;;;;;;;;;;;;;;;5024296;28;20036;-39
2023/04/29 10:07:39;;;;;;;6.03;1.48;;;;;;;;;;5022665;28;19923;-41
2023/04/29 10:10:07;;;;;;;6.45;1.50;;;;;;;;;;5017424;28;20116;-44
2023/04/29 10:12:34;;;;;;;2.85;1.83;;;;;;;;;;5020315;28;20125;-43
2023/04/29 10:15:03;;;;;;;2.35;1.27;;;;;;;;;;5021103;28;20107;-43
2023/04/29 10:17:39;;;;;;;3.20;1.30;;;;;;;;;;5021522;28;20045;-43
2023/04/29 10:20:07;;;;;;;3.28;1.55;;;;;;;;;;5024156;28;20041;-47
2023/04/29 10:22:44;;;;;;;4.82;1.23;;;;;;;;;;5024185;28;20049;-43
2023/04/29 10:25:11;;;;;;;4.97;1.40;;;;;;;;;;5021309;28;20112;-44
2023/04/29 10:27:38;;;;;;;1.58;1.35;;;;;;;;;;5024622;28;20497;-44
2023/04/29 10:30:08;;;;;;;1.92;1.45;;;;;;;;;;5021632;28;20030;-44
2023/04/29 10:32:33;;;;;;;2.00;1.45;;;;;;;;;;5022506;28;20107;-44
2023/04/29 10:34:59;;;;;;;4.40;2.10;;;;;;;;;;5025059;28;20065;-43
2023/04/29 10:37:25;;;;;;;7.78;2.00;;;;;;;;;;5024212;28;20040;-43
2023/04/29 10:40:17;;;;;;;1.73;1.60;;;;;;;;;;5022208;28;20029;-44
2023/04/29 10:42:52;;;;;;;6.43;1.92;;;;;;;;;;5023562;28;20184;-45
2023/04/29 10:45:30;;;;;;;2.67;1.63;;;;;;;;;;5023184;28;20025;-46
2023/04/29 10:48:05;;;;;;;10.02;2.25;;;;;;;;;;5023190;28;20032;-46
2023/04/29 10:50:32;;;;;;;2.03;1.63;;;;;;;;;;5024671;28;20049;-42
2023/04/29 10:53:01;;;;;;;2.47;1.40;;;;;;;;;;5023330;28;20381;-44
2023/04/29 10:55:26;;;;;;;2.95;1.50;;;;;;;;;;5023473;28;20084;-42
2023/04/29 10:57:52;;;;;;;2.22;1.55;;;;;;;;;;5023373;28;20042;-43
2023/04/29 11:00:22;;;;;;;1.50;1.40;;;;;;;;;;5025369;28;20120;-43
2023/04/29 11:02:48;;;;;;;2.55;1.30;;;;;;;;;;5024962;28;20389;-43
2023/04/29 11:05:13;;;;;;;5.65;1.13;;;;;;;;;;5020323;28;20025;-40
2023/04/29 11:07:39;;;;;;;2.55;1.15;;;;;;;;;;5024486;28;20116;-42
2023/04/29 11:10:06;;;;;;;1.60;1.38;;;;;;;;;;5022622;28;20091;-42
2023/04/29 11:12:31;;;;;;;1.40;1.30;;;;;;;;;;5021474;28;20036;-41
2023/04/29 11:15:03;;;;;;;3.97;1.33;;;;;;;;;;5023621;28;20476;-44
2023/04/29 11:17:35;;;;;;;4.72;1.35;;;;;;;;;;5022639;28;20080;-43
2023/04/29 11:20:01;;;;;;;3.42;1.10;;;;;;;;;;5024308;28;20396;-47
2023/04/29 11:22:29;;;;;;;4.22;1.40;;;;;;;;;;5024352;28;20461;-46
2023/04/29 11:24:59;;;;;;;1.63;1.23;;;;;;;;;;5024106;28;20025;-51
2023/04/29 11:27:28;;;;;;;2.75;1.40;;;;;;;;;;5024460;28;20131;-48
2023/04/29 11:29:57;;;;;;;5.93;1.30;;;;;;;;;;5023404;28;20031;-41
2023/04/29 11:32:24;;;;;;;3.50;1.17;;;;;;;;;;5023316;28;20033;-46
2023/04/29 11:34:50;;;;;;;6.25;1.48;;;;;;;;;;5023476;28;20386;-51
2023/04/29 11:37:23;;;;;;;2.25;1.20;;;;;;;;;;5022513;28;20478;-44
2023/04/29 11:39:50;;;;;;;2.78;1.20;;;;;;;;;;5022310;28;20102;-46
2023/04/29 11:42:20;;;;;;;2.13;1.40;;;;;;;;;;5022289;28;20639;-44
2023/04/29 11:44:45;;;;;;;3.47;1.10;;;;;;;;;;5020519;28;20108;-44
2023/04/29 11:47:11;;;;;;;2.15;1.02;;;;;;;;;;5021182;28;20124;-41
2023/04/29 11:49:36;;;;;;;3.80;1.10;;;;;;;;;;5024414;28;20385;-41
2023/04/29 11:52:02;;;;;;;3.05;1.38;;;;;;;;;;5022999;28;20103;-41
2023/04/29 11:54:29;;;;;;;2.20;1.05;;;;;;;;;;5022489;28;20077;-43
2023/04/29 11:56:55;;;;;;;3.53;1.13;;;;;;;;;;5022950;28;20046;-44
2023/04/29 11:59:21;;;;;;;2.97;1.20;;;;;;;;;;5021173;28;20100;-43
2023/04/29 12:01:48;;;;;;;1.00;0.90;;;;;;;;;;5022394;28;20485;-41
2023/04/29 12:04:13;;;;;;;2.55;1.30;;;;;;;;;;5018371;28;20045;-45
2023/04/29 12:06:40;;;;;;;2.17;1.08;;;;;;;;;;5024147;28;20033;-46
2023/04/29 12:09:05;;;;;;;4.63;1.25;;;;;;;;;;5018229;28;20116;-42
2023/04/29 12:11:31;;;;;;;1.38;1.10;;;;;;;;;;5019566;28;20721;-43
2023/04/29 12:13:57;;;;;;;1.23;0.90;;;;;;;;;;5020844;28;20021;-42
2023/04/29 12:16:28;;;;;;;1.25;0.93;;;;;;;;;;5023664;28;20040;-41
2023/04/29 12:18:54;;;;;;;1.75;1.00;;;;;;;;;;5023091;28;20560;-40
2023/04/29 12:21:21;;;;;;;3.90;1.00;;;;;;;;;;5025570;28;20440;-42
2023/04/29 12:23:47;;;;;;;4.53;1.08;;;;;;;;;;5022284;28;20030;-41
2023/04/29 12:26:13;;;;;;;4.78;1.02;;;;;;;;;;5022487;28;20318;-41
2023/04/29 12:28:40;;;;;;;6.00;1.10;;;;;;;;;;5022963;28;20466;-41
2023/04/29 12:31:09;;;;;;;1.40;0.90;;;;;;;;;;5020056;28;20406;-45
2023/04/29 12:33:34;;;;;;;1.95;1.13;;;;;;;;;;5022947;28;20071;-43
2023/04/29 12:36:00;;;;;;;1.23;0.98;;;;;;;;;;5022364;28;20132;-48
2023/04/29 12:38:30;;;;;;;3.05;1.02;;;;;;;;;;5019428;28;20026;-46
2023/04/29 12:40:59;;;;;;;4.82;1.15;;;;;;;;;;5023364;28;20029;-44
2023/04/29 12:43:27;;;;;;;3.42;1.02;;;;;;;;;;5020962;28;20382;-41
2023/04/29 12:45:59;;;;;;;1.35;1.10;;;;;;;;;;5019179;28;20056;-43
2023/04/29 12:48:37;;;;;;;1.02;0.95;;;;;;;;;;5020663;28;20116;-44
2023/04/29 12:51:04;;;;;;;1.23;1.10;;;;;;;;;;5021763;28;20053;-45
2023/04/29 12:53:30;;;;;;;4.00;1.17;;;;;;;;;;5022491;28;20030;-50
2023/04/29 12:55:56;;;;;;;1.00;1.00;;;;;;;;;;5020239;28;20394;-45
2023/04/29 12:58:22;;;;;;;6.22;1.13;;;;;;;;;;5023011;28;20037;-49
2023/04/29 13:00:47;;;;;;;2.15;1.20;;;;;;;;;;5021255;28;20038;-46
2023/04/29 13:03:13;;;;;;;1.40;1.17;;;;;;;;;;5021527;28;20045;-44
2023/04/29 13:05:39;;;;;;;16.40;1.38;;;;;;;;;;5021673;28;20116;-47
2023/04/29 13:08:05;;;;;;;2.03;0.90;;;;;;;;;;5021202;28;20382;-45
2023/04/29 13:10:31;;;;;;;7.55;5.53;;;;;;;;;;5021439;28;20405;-46
2023/04/29 13:12:57;;;;;;;4.00;1.45;;;;;;;;;;5022249;28;20410;-44
2023/04/29 13:15:24;;;;;;;4.00;1.50;;;;;;;;;;5017145;28;20120;-44
2023/04/29 13:17:50;;;;;;;3.33;1.15;;;;;;;;;;5024302;28;20022;-48
2023/04/29 13:20:16;;;;;;;1.70;1.08;;;;;;;;;;5020212;28;20571;-45
2023/04/29 13:22:43;;;;;;;4.13;1.17;;;;;;;;;;5021918;28;20498;-44
2023/04/29 13:25:09;;;;;;;5.30;1.00;;;;;;;;;;5023148;28;20053;-43
2023/04/29 13:27:35;;;;;;;1.95;1.20;;;;;;;;;;5021093;28;20052;-44
2023/04/29 13:30:00;;;;;;;1.85;1.33;;;;;;;;;;5021049;28;20030;-45
2023/04/29 13:32:26;;;;;;;1.50;0.88;;;;;;;;;;5020429;28;20033;-46
2023/04/29 13:34:52;;;;;;;4.10;1.40;;;;;;;;;;5023894;28;20070;-48
2023/04/29 13:37:17;;;;;;;4.20;1.20;;;;;;;;;;5019851;28;20038;-42
2023/04/29 13:39:42;;;;;;;4.50;1.58;;;;;;;;;;5020924;28;20172;-45
2023/04/29 13:42:08;;;;;;;2.72;1.30;;;;;;;;;;5022380;28;20046;-44
2023/04/29 13:44:35;;;;;;;2.78;1.40;;;;;;;;;;5020717;28;22296;-43
2023/04/29 13:47:00;;;;;;;1.80;1.25;;;;;;;;;;5022838;28;20049;-46
2023/04/29 13:49:26;;;;;;;1.95;1.50;;;;;;;;;;5019886;28;20044;-44
2023/04/29 13:51:51;;;;;;;5.85;1.52;;;;;;;;;;5018541;28;20120;-51
2023/04/29 13:54:19;;;;;;;2.15;1.23;;;;;;;;;;5019481;28;20160;-50
2023/04/29 13:56:45;;;;;;;2.10;1.30;;;;;;;;;;5021144;28;20042;-46
2023/04/29 13:59:10;;;;;;;14.48;1.90;;;;;;;;;;5022877;28;20087;-51
2023/04/29 14:01:36;;;;;;;7.95;1.58;;;;;;;;;;5023640;28;20037;-44
2023/04/29 14:04:01;;;;;;;1.40;1.20;;;;;;;;;;5023417;28;20399;-41
2023/04/29 14:06:27;;;;;;;5.72;1.08;;;;;;;;;;5024925;28;20108;-46
2023/04/29 14:08:52;;;;;;;3.63;1.20;;;;;;;;;;5021980;28;20017;-44
2023/04/29 14:11:18;;;;;;;1.45;1.33;;;;;;;;;;5022734;28;20041;-44
2023/04/29 14:13:43;;;;;;;2.80;1.30;;;;;;;;;;5025163;28;20025;-44
2023/04/29 14:16:09;;;;;;;1.70;1.13;;;;;;;;;;5024891;28;20042;-46
2023/04/29 14:18:34;;;;;;;4.57;1.20;;;;;;;;;;5025391;28;20028;-47
2023/04/29 14:21:00;;;;;;;2.40;1.05;;;;;;;;;;5021350;28;20049;-44
2023/04/29 14:23:25;;;;;;;1.77;0.80;;;;;;;;;;5025822;28;20017;-44
2023/04/29 14:25:51;;;;;;;1.88;1.20;;;;;;;;;;5026169;28;20042;-43
2023/04/29 14:28:16;;;;;;;2.90;1.08;;;;;;;;;;5024908;28;20029;-41
2023/04/29 14:30:42;;;;;;;1.17;1.08;;;;;;;;;;5023708;28;20524;-45
2023/04/29 14:33:08;;;;;;;6.60;1.13;;;;;;;;;;5023603;28;20112;-46
2023/04/29 14:35:33;;;;;;;0.80;0.80;;;;;;;;;;5022270;28;20125;-43
2023/04/29 14:37:58;;;;;;;0.80;0.80;;;;;;;;;;5023388;28;20417;-42
2023/04/29 14:40:24;;;;;;;1.20;1.00;;;;;;;;;;5023459;28;20026;-49